| time (UTC) | temp F | wind direction | speed MPH | gust MPH | rain 1hr in | rain 24hr in | rain mn in | humidity % | barometer mb |
| 20260504214105 | 72 | 272 | 1.0 | 8.0 | 0.00 | 0.00 | 0.00 | 33 | 1007.5 |
| 20260504213606 | 72 | 178 | 3.0 | 8.0 | 0.00 | 0.00 | 0.00 | 33 | 1007.5 |
| 20260504213105 | 72 | 282 | 4.0 | 12.0 | 0.00 | 0.00 | 0.00 | 33 | 1007.5 |
| 20260504211106 | 72 | 252 | 4.0 | 10.0 | 0.00 | 0.00 | 0.00 | 33 | 1007.7 |
| 20260504210605 | 73 | 299 | 3.0 | 12.0 | 0.00 | 0.00 | 0.00 | 33 | 1007.6 |
| 20260504210105 | 73 | 296 | 3.0 | 8.0 | 0.00 | 0.00 | 0.00 | 33 | 1007.4 |
| 20260504205605 | 72 | 310 | 1.0 | 9.0 | 0.00 | 0.00 | 0.00 | 33 | 1007.3 |
| 20260504205107 | 72 | 290 | 4.0 | 10.0 | 0.00 | 0.00 | 0.00 | 33 | 1007.4 |
| 20260504204605 | 72 | 221 | 3.0 | 9.0 | 0.00 | 0.00 | 0.00 | 33 | 1007.4 |
| 20260504204106 | 72 | 218 | 3.0 | 7.0 | 0.00 | 0.00 | 0.00 | 34 | 1007.4 |
| 20260504203606 | 71 | 215 | 3.0 | 9.0 | 0.00 | 0.00 | 0.00 | 34 | 1007.4 |
| 20260504203106 | 71 | 232 | 4.0 | 9.0 | 0.00 | 0.00 | 0.00 | 33 | 1007.5 |
| 20260504202606 | 70 | 309 | 5.0 | 12.0 | 0.00 | 0.00 | 0.00 | 34 | 1007.3 |
| 20260504202106 | 70 | 208 | 5.0 | 10.0 | 0.00 | 0.00 | 0.00 | 34 | 1007.5 |
| 20260504201607 | 71 | 191 | 3.0 | 16.0 | 0.00 | 0.00 | 0.00 | 34 | 1007.6 |
| 20260504200605 | 72 | 245 | 3.0 | 9.0 | 0.00 | 0.00 | 0.00 | 33 | 1007.6 |
| 20260504200105 | 72 | 202 | 3.0 | 8.0 | 0.00 | 0.00 | 0.00 | 34 | 1007.3 |
| 20260504194605 | 69 | 188 | 5.0 | 9.0 | 0.00 | 0.00 | 0.00 | 34 | 1007.9 |
| 20260504194105 | 69 | 232 | 4.0 | 9.0 | 0.00 | 0.00 | 0.00 | 35 | 1007.5 |
| 20260504193605 | 69 | 269 | 3.0 | 9.0 | 0.00 | 0.00 | 0.00 | 35 | 1008.2 |
| 20260504192104 | 70 | 216 | 4.0 | 9.0 | 0.00 | 0.00 | 0.00 | 34 | 1008.2 |
| 20260504191604 | 70 | 240 | 3.0 | 8.0 | 0.00 | 0.00 | 0.00 | 33 | 1007.9 |
| 20260504190605 | 70 | 262 | 6.0 | 12.0 | 0.00 | 0.00 | 0.00 | 33 | 1007.8 |
| 20260504185605 | 70 | 220 | 4.0 | 14.0 | 0.00 | 0.00 | 0.00 | 34 | 1007.7 |
| 20260504185105 | 70 | 223 | 3.0 | 12.0 | 0.00 | 0.00 | 0.00 | 33 | 1007.7 |
| 20260504184105 | 69 | 148 | 3.0 | 17.0 | 0.00 | 0.00 | 0.00 | 33 | 1008.0 |
| 20260504183606 | 70 | 266 | 5.0 | 12.0 | 0.00 | 0.00 | 0.00 | 32 | 1008.2 |
| 20260504183105 | 70 | 212 | 3.0 | 12.0 | 0.00 | 0.00 | 0.00 | 33 | 1008.0 |
| 20260504182106 | 70 | 194 | 5.0 | 10.0 | 0.00 | 0.00 | 0.00 | 31 | 1008.2 |
| 20260504181605 | 70 | 241 | 3.0 | 8.0 | 0.00 | 0.00 | 0.00 | 32 | 1007.9 |
| 20260504181104 | 69 | 208 | 4.0 | 10.0 | 0.00 | 0.00 | 0.00 | 31 | 1008.1 |
| 20260504175606 | 69 | 330 | 3.0 | 10.0 | 0.00 | 0.00 | 0.00 | 33 | 1008.1 |
| 20260504175105 | 69 | 279 | 5.0 | 13.0 | 0.00 | 0.00 | 0.00 | 32 | 1008.2 |
| 20260504174613 | 69 | 170 | 3.0 | 10.0 | 0.00 | 0.00 | 0.00 | 32 | 1008.2 |
| 20260504174105 | 68 | 170 | 3.0 | 9.0 | 0.00 | 0.00 | 0.00 | 34 | 1008.2 |
| 20260504173605 | 68 | 264 | 5.0 | 13.0 | 0.00 | 0.00 | 0.00 | 34 | 1008.5 |
| 20260504173105 | 68 | 258 | 5.0 | 12.0 | 0.00 | 0.00 | 0.00 | 34 | 1008.4 |
| 20260504172605 | 68 | 200 | 5.0 | 16.0 | 0.00 | 0.00 | 0.00 | 35 | 1008.4 |
| 20260504171605 | 69 | 301 | 4.0 | 9.0 | 0.00 | 0.00 | 0.00 | 35 | 1008.5 |
| 20260504171105 | 68 | 208 | 4.0 | 14.0 | 0.00 | 0.00 | 0.00 | 34 | 1008.4 |
| 20260504170605 | 69 | 287 | 4.0 | 8.0 | 0.00 | 0.00 | 0.00 | 34 | 1008.4 |
| 20260504170105 | 68 | 292 | 4.0 | 9.0 | 0.00 | 0.00 | 0.00 | 33 | 1008.3 |
| 20260504150606 | 62 | 330 | 3.0 | 10.0 | 0.00 | 0.00 | 0.00 | 41 | 1009.7 |
| 20260504150106 | 62 | 222 | 4.0 | 13.0 | 0.00 | 0.00 | 0.00 | 40 | 1009.6 |
| 20260504141106 | 60 | 314 | 4.0 | 9.0 | 0.00 | 0.00 | 0.00 | 41 | 1009.6 |
| 20260504140607 | 60 | 219 | 4.0 | 9.0 | 0.00 | 0.00 | 0.00 | 42 | 1009.4 |
| 20260504140106 | 60 | 205 | 3.0 | 8.0 | 0.00 | 0.00 | 0.00 | 42 | 1009.6 |
| 20260504130605 | 56 | 181 | 2.0 | 9.0 | 0.00 | 0.00 | 0.00 | 47 | 1010.3 |
| 20260504130106 | 56 | 262 | 3.0 | 8.0 | 0.00 | 0.00 | 0.00 | 47 | 1010.3 |
| 20260504110606 | 39 | 22 | 0.0 | 2.0 | 0.00 | 0.00 | 0.00 | 84 | 1010.9 |
| 20260504110105 | 38 | 42 | 1.0 | 2.0 | 0.00 | 0.00 | 0.00 | 87 | 1011.0 |
| 20260504100606 | 36 | 38 | 0.0 | 0.0 | 0.00 | 0.00 | 0.00 | 90 | 1011.8 |
| 20260504100106 | 36 | 32 | 0.0 | 1.0 | 0.00 | 0.00 | 0.00 | 91 | 1011.7 |
| 20260504081605 | 39 | 84 | 0.0 | 0.0 | 0.00 | 0.00 | 0.00 | 86 | 1011.4 |
| 20260504081105 | 40 | 84 | 0.0 | 0.0 | 0.00 | 0.00 | 0.00 | 86 | 1011.3 |
| 20260504080105 | 40 | 358 | 0.0 | 0.0 | 0.00 | 0.00 | 0.00 | 86 | 1010.9 |
| 20260504060106 | 38 | 226 | 0.0 | 1.0 | 0.00 | 0.00 | 0.00 | 82 | 1011.0 |
| 20260504050605 | 38 | 30 | 0.0 | 0.0 | 0.00 | 0.00 | 0.00 | 87 | 1011.1 |
| 20260504050105 | 38 | 30 | 0.0 | 0.0 | 0.00 | 0.00 | 0.00 | 87 | 1011.1 |
| 20260504045605 | 38 | 30 | 0.0 | 0.0 | 0.00 | 0.00 | 0.00 | 87 | 1011.0 |
| 20260504045105 | 37 | 30 | 0.0 | 0.0 | 0.00 | 0.00 | 0.00 | 87 | 1011.1 |
| 20260504044605 | 37 | 9 | 0.0 | 0.0 | 0.00 | 0.00 | 0.00 | 87 | 1011.0 |
| 20260504044105 | 37 | 50 | 0.0 | 1.0 | 0.00 | 0.00 | 0.00 | 87 | 1011.0 |
| 20260504043105 | 37 | 115 | 0.0 | 1.0 | 0.00 | 0.00 | 0.00 | 87 | 1011.1 |
| 20260504042605 | 36 | 29 | 0.0 | 1.0 | 0.00 | 0.00 | 0.00 | 87 | 1011.2 |
| 20260504040606 | 35 | 3 | 0.0 | 1.0 | 0.00 | 0.00 | 0.00 | 86 | 1011.4 |
| 20260504040106 | 35 | 16 | 0.0 | 1.0 | 0.00 | 0.00 | 0.00 | 87 | 1011.4 |
| 20260504035604 | 35 | 138 | 0.0 | 1.0 | 0.00 | 0.00 | 0.00 | 88 | 1011.3 |
| 20260504035105 | 35 | 22 | 0.0 | 1.0 | 0.00 | 0.00 | 0.00 | 88 | 1011.5 |
| 20260504034605 | 35 | 132 | 0.0 | 1.0 | 0.00 | 0.00 | 0.00 | 88 | 1011.5 |
| 20260504034105 | 35 | 76 | 0.0 | 2.0 | 0.00 | 0.00 | 0.00 | 87 | 1011.6 |
| 20260504032604 | 35 | 303 | 0.0 | 1.0 | 0.00 | 0.00 | 0.00 | 85 | 1011.5 |
| 20260504032106 | 35 | 38 | 0.0 | 1.0 | 0.00 | 0.00 | 0.00 | 84 | 1011.5 |
| 20260504031605 | 35 | 307 | 1.0 | 3.0 | 0.00 | 0.00 | 0.00 | 84 | 1011.5 |
| 20260504031105 | 35 | 109 | 0.0 | 2.0 | 0.00 | 0.00 | 0.00 | 83 | 1011.5 |
| 20260504030605 | 35 | 30 | 0.0 | 2.0 | 0.00 | 0.00 | 0.00 | 83 | 1011.5 |
| 20260504030105 | 35 | 45 | 0.0 | 1.0 | 0.00 | 0.00 | 0.00 | 83 | 1011.5 |
| 20260504025605 | 35 | 73 | 0.0 | 0.0 | 0.00 | 0.00 | 0.00 | 82 | 1011.5 |
| 20260504025106 | 36 | 73 | 0.0 | 0.0 | 0.00 | 0.00 | 0.00 | 80 | 1011.5 |
| 20260504024605 | 36 | 73 | 0.0 | 0.0 | 0.00 | 0.00 | 0.00 | 80 | 1011.4 |
| 20260504024104 | 36 | 73 | 0.0 | 1.0 | 0.00 | 0.00 | 0.00 | 80 | 1011.4 |
| 20260504023606 | 36 | 42 | 0.0 | 1.0 | 0.00 | 0.00 | 0.00 | 81 | 1011.4 |
| 20260504023105 | 36 | 257 | 0.0 | 1.0 | 0.00 | 0.00 | 0.00 | 80 | 1011.4 |
| 20260504022606 | 36 | 63 | 0.0 | 0.0 | 0.00 | 0.00 | 0.00 | 80 | 1011.5 |
| 20260504022105 | 36 | 63 | 0.0 | 1.0 | 0.00 | 0.00 | 0.00 | 79 | 1011.4 |
| 20260504021606 | 37 | 59 | 0.0 | 1.0 | 0.00 | 0.00 | 0.00 | 78 | 1011.4 |
| 20260504021105 | 37 | 73 | 0.0 | 1.0 | 0.00 | 0.00 | 0.00 | 77 | 1011.4 |
| 20260504020605 | 37 | 48 | 0.0 | 0.0 | 0.00 | 0.00 | 0.00 | 76 | 1011.4 |
| 20260504020106 | 37 | 48 | 0.0 | 0.0 | 0.00 | 0.00 | 0.00 | 78 | 1011.4 |
| 20260504015606 | 37 | 50 | 0.0 | 1.0 | 0.00 | 0.00 | 0.00 | 77 | 1011.4 |
| 20260504015105 | 38 | 90 | 0.0 | 0.0 | 0.00 | 0.00 | 0.00 | 76 | 1011.3 |
| 20260504014604 | 38 | 71 | 0.0 | 1.0 | 0.00 | 0.00 | 0.00 | 76 | 1011.2 |
| 20260504014104 | 38 | 26 | 0.0 | 1.0 | 0.00 | 0.00 | 0.00 | 74 | 1011.3 |
| 20260504013605 | 38 | 27 | 0.0 | 1.0 | 0.00 | 0.00 | 0.00 | 74 | 1011.2 |
| 20260504013105 | 39 | 45 | 0.0 | 1.0 | 0.00 | 0.00 | 0.00 | 74 | 1011.1 |
| 20260504012605 | 39 | 351 | 0.0 | 1.0 | 0.00 | 0.00 | 0.00 | 73 | 1011.1 |
| 20260504011605 | 40 | 226 | 0.0 | 1.0 | 0.00 | 0.00 | 0.00 | 72 | 1011.1 |
| 20260504011106 | 40 | 207 | 0.0 | 0.0 | 0.00 | 0.00 | 0.00 | 71 | 1011.1 |
| 20260504010605 | 40 | 4 | 0.0 | 0.0 | 0.00 | 0.00 | 0.00 | 70 | 1011.0 |
| 20260504010105 | 41 | 4 | 0.0 | 0.0 | 0.00 | 0.00 | 0.00 | 68 | 1010.9 |
| 20260504005605 | 41 | 4 | 0.0 | 1.0 | 0.00 | 0.00 | 0.00 | 66 | 1010.8 |
| 20260504005105 | 42 | 34 | 0.0 | 1.0 | 0.00 | 0.00 | 0.00 | 65 | 1010.8 |
| 20260504004605 | 42 | 81 | 0.0 | 0.0 | 0.00 | 0.00 | 0.00 | 63 | 1010.6 |
| 20260504004105 | 43 | 339 | 0.0 | 1.0 | 0.00 | 0.00 | 0.00 | 61 | 1010.6 |
| 20260504003605 | 44 | 27 | 0.0 | 0.0 | 0.00 | 0.00 | 0.00 | 61 | 1010.5 |
| 20260504003106 | 44 | 27 | 0.0 | 1.0 | 0.00 | 0.00 | 0.00 | 60 | 1010.5 |
| 20260504002605 | 45 | 26 | 0.0 | 1.0 | 0.00 | 0.00 | 0.00 | 58 | 1010.5 |
| 20260504002105 | 46 | 21 | 0.0 | 1.0 | 0.00 | 0.00 | 0.00 | 55 | 1010.4 |
| 20260504001604 | 46 | 269 | 0.0 | 0.0 | 0.00 | 0.00 | 0.00 | 53 | 1010.2 |
| 20260504001104 | 47 | 269 | 0.0 | 0.0 | 0.00 | 0.00 | 0.00 | 52 | 1010.1 |
| 20260504000605 | 48 | 69 | 0.0 | 0.0 | 0.00 | 0.00 | 0.00 | 51 | 1010.1 |
| 20260503235605 | 49 | 64 | 0.0 | 2.0 | 0.00 | 0.00 | 0.00 | 47 | 1009.8 |
| 20260503235104 | 49 | 335 | 1.0 | 6.0 | 0.00 | 0.00 | 0.00 | 44 | 1009.7 |
| 20260503234105 | 50 | 302 | 1.0 | 3.0 | 0.00 | 0.00 | 0.00 | 43 | 1009.6 |
| 20260503233605 | 50 | 329 | 0.0 | 5.0 | 0.00 | 0.00 | 0.00 | 43 | 1009.5 |
| 20260503232605 | 50 | 355 | 2.0 | 7.0 | 0.00 | 0.00 | 0.00 | 41 | 1009.3 |
| 20260503232104 | 51 | 320 | 3.0 | 2.0 | 0.00 | 0.00 | 0.00 | 41 | 1009.2 |
| 20260503231604 | 51 | 337 | 5.0 | 9.0 | 0.00 | 0.00 | 0.00 | 41 | 1009.2 |
| 20260503231105 | 51 | 344 | 3.0 | 7.0 | 0.00 | 0.00 | 0.00 | 40 | 1009.1 |
| 20260503230604 | 52 | 353 | 2.0 | 8.0 | 0.00 | 0.00 | 0.00 | 40 | 1008.9 |
| 20260503230106 | 52 | 343 | 2.0 | 7.0 | 0.00 | 0.00 | 0.00 | 39 | 1008.7 |
| 20260503225605 | 52 | 342 | 2.0 | 6.0 | 0.00 | 0.00 | 0.00 | 39 | 1008.7 |
| 20260503225104 | 52 | 303 | 1.0 | 5.0 | 0.00 | 0.00 | 0.00 | 40 | 1008.6 |
| 20260503224605 | 51 | 344 | 2.0 | 7.0 | 0.00 | 0.00 | 0.00 | 40 | 1008.7 |
| 20260503223104 | 51 | 6 | 3.0 | 8.0 | 0.00 | 0.00 | 0.00 | 40 | 1008.6 |
| 20260503222604 | 51 | 339 | 3.0 | 8.0 | 0.00 | 0.00 | 0.00 | 40 | 1008.7 |
| 20260503222106 | 51 | 353 | 3.0 | 7.0 | 0.00 | 0.00 | 0.00 | 40 | 1008.6 |
| 20260503221605 | 51 | 337 | 5.0 | 8.0 | 0.00 | 0.00 | 0.00 | 40 | 1008.6 |
| 20260503220605 | 51 | 0 | 3.0 | 6.0 | 0.00 | 0.00 | 0.00 | 40 | 1008.5 |
| 20260503220106 | 52 | 335 | 2.0 | 6.0 | 0.00 | 0.00 | 0.00 | 40 | 1008.6 |
| 20260503215605 | 52 | 12 | 5.0 | 12.0 | 0.00 | 0.00 | 0.00 | 39 | 1008.5 |
| 20260503214605 | 53 | 357 | 3.0 | 9.0 | 0.00 | 0.00 | 0.00 | 39 | 1008.2 |